Time;durP1;ratioP1;P1;durP2;ratioP2;P2;SDS_P1;SDS_P2;PMS_P1;PMS_P2;Temp;Humidity;BMP_temperature;BMP_pressure;BME280_temperature;BME280_humidity;BME280_pressure;Samples;Min_cycle;Max_cycle;Signal;HPM_P1;HPM_P2
2022/11/04 00:01:40;;;;;;;31.23;16.35;;;11.20;99.90;;;;;;5115893;28;20663;-76
2022/11/04 00:04:06;;;;;;;28.27;16.83;;;11.20;99.90;;;;;;5097611;28;20176;-77
2022/11/04 00:06:32;;;;;;;27.75;16.70;;;11.20;99.90;;;;;;5115834;28;20298;-77
2022/11/04 00:08:58;;;;;;;27.03;16.03;;;11.20;99.90;;;;;;5116082;28;20207;-77
2022/11/04 00:14:10;;;;;;;46.15;24.90;;;11.20;99.90;;;;;;5115588;28;20549;-72
2022/11/04 00:19:20;;;;;;;36.70;24.23;;;11.20;99.90;;;;;;5116224;28;20191;-77
2022/11/04 00:29:57;;;;;;;27.60;16.67;;;11.20;99.90;;;;;;5115504;28;20290;-77
2022/11/04 00:35:09;;;;;;;24.50;15.00;;;11.20;99.90;;;;;;5115495;28;20342;-73
2022/11/04 00:37:39;;;;;;;27.97;16.67;;;11.20;99.90;;;;;;5115195;28;20411;-76
2022/11/04 00:40:06;;;;;;;27.77;17.73;;;11.20;99.90;;;;;;5096934;28;20440;-76
2022/11/04 00:42:32;;;;;;;29.75;17.85;;;11.10;99.90;;;;;;5096813;28;20538;-73
2022/11/04 00:44:57;;;;;;;27.83;17.35;;;11.10;99.90;;;;;;5114781;28;20203;-77
2022/11/04 00:47:23;;;;;;;31.33;19.27;;;11.10;99.90;;;;;;5115079;28;20174;-72
2022/11/04 00:49:50;;;;;;;28.77;19.17;;;11.10;99.90;;;;;;5096588;28;20245;-72
2022/11/04 00:52:15;;;;;;;29.80;17.55;;;11.10;99.90;;;;;;5114888;28;20572;-76
2022/11/04 00:54:41;;;;;;;25.73;16.07;;;11.10;99.90;;;;;;5096922;28;20203;-72
2022/11/04 00:57:11;;;;;;;30.57;17.60;;;11.10;99.90;;;;;;5114851;28;20175;-76
2022/11/04 00:59:37;;;;;;;27.52;18.27;;;11.10;99.90;;;;;;5096651;28;20212;-72
2022/11/04 01:02:02;;;;;;;26.73;17.23;;;11.10;99.90;;;;;;5096523;28;20209;-73
2022/11/04 01:04:28;;;;;;;28.20;16.77;;;11.00;99.90;;;;;;5114628;28;20553;-76
2022/11/04 01:06:54;;;;;;;32.37;20.00;;;11.00;99.90;;;;;;5113333;28;20856;-73
2022/11/04 01:09:20;;;;;;;29.27;17.60;;;11.00;99.90;;;;;;5096481;28;20439;-72
2022/11/04 01:11:45;;;;;;;31.20;18.17;;;10.90;99.90;;;;;;5114670;28;20542;-72
2022/11/04 01:14:11;;;;;;;29.70;17.70;;;10.90;99.90;;;;;;5096311;28;20260;-77
2022/11/04 01:16:38;;;;;;;28.20;18.45;;;10.90;99.90;;;;;;5096692;28;20203;-77
2022/11/04 01:19:03;;;;;;;29.05;18.70;;;10.90;99.90;;;;;;5112996;28;20195;-77
2022/11/04 01:21:29;;;;;;;30.57;18.33;;;10.90;99.90;;;;;;5114539;28;20163;-75
2022/11/04 01:23:55;;;;;;;29.00;17.83;;;10.90;99.90;;;;;;5095967;28;20239;-72
2022/11/04 01:26:23;;;;;;;27.20;16.52;;;10.80;99.90;;;;;;5095998;28;20241;-77
2022/11/04 01:28:51;;;;;;;27.08;18.10;;;10.80;99.90;;;;;;5112552;28;20179;-77
2022/11/04 01:31:21;;;;;;;28.63;18.55;;;10.80;99.90;;;;;;5114302;28;20184;-72
2022/11/04 01:33:48;;;;;;;26.98;17.00;;;10.80;99.90;;;;;;5096206;28;20580;-73
2022/11/04 01:36:14;;;;;;;28.75;18.75;;;10.80;99.90;;;;;;5095916;28;20199;-77
2022/11/04 01:38:40;;;;;;;28.90;18.43;;;10.80;99.90;;;;;;5096053;28;20183;-77
2022/11/04 01:41:07;;;;;;;28.67;18.90;;;10.80;99.90;;;;;;5114096;28;20424;-77
2022/11/04 01:44:00;;;;;;;33.70;18.45;;;10.80;99.90;;;;;;5114348;28;20187;-72
2022/11/04 01:46:37;;;;;;;36.03;18.25;;;10.80;99.90;;;;;;5092709;28;20223;-77
2022/11/04 01:49:32;;;;;;;27.85;17.75;;;10.70;99.90;;;;;;5095930;28;20191;-77
2022/11/04 01:52:02;;;;;;;29.85;17.50;;;10.70;99.90;;;;;;5095979;28;20172;-77
2022/11/04 01:54:29;;;;;;;28.88;19.60;;;10.70;99.90;;;;;;5114545;28;20252;-77
2022/11/04 01:56:57;;;;;;;29.77;18.85;;;10.70;99.90;;;;;;5113991;28;20603;-77
2022/11/04 01:59:28;;;;;;;30.65;18.58;;;10.70;99.90;;;;;;5114301;28;20223;-72
2022/11/04 02:01:53;;;;;;;34.83;18.65;;;10.70;99.90;;;;;;5114038;28;20206;-73
2022/11/04 02:04:26;;;;;;;34.70;18.47;;;10.60;99.90;;;;;;5113779;28;20216;-73
2022/11/04 02:07:00;;;;;;;29.45;18.52;;;10.60;99.90;;;;;;5113798;28;20207;-77
2022/11/04 02:09:29;;;;;;;31.52;19.80;;;10.60;99.90;;;;;;5112478;28;20235;-77
2022/11/04 02:14:40;;;;;;;28.23;17.40;;;10.60;99.90;;;;;;5114524;28;20219;-72
2022/11/04 02:17:17;;;;;;;25.40;17.88;;;10.60;99.90;;;;;;5095588;28;20172;-76
2022/11/04 02:20:17;;;;;;;30.00;17.83;;;10.60;99.90;;;;;;5114280;28;20195;-72
2022/11/04 02:23:20;;;;;;;28.80;18.15;;;10.50;99.90;;;;;;5113949;28;20671;-77
2022/11/04 02:26:17;;;;;;;27.42;17.92;;;10.50;99.90;;;;;;5113624;28;20642;-77
2022/11/04 02:29:15;;;;;;;28.48;17.65;;;10.50;99.90;;;;;;5095492;28;20187;-73
2022/11/04 02:31:58;;;;;;;25.75;16.02;;;10.50;99.90;;;;;;5113897;28;20172;-77
2022/11/04 02:34:41;;;;;;;32.78;17.45;;;10.40;99.90;;;;;;5114065;28;20196;-72
2022/11/04 02:37:47;;;;;;;26.88;17.08;;;10.40;99.90;;;;;;5113707;28;20172;-72
2022/11/04 02:40:33;;;;;;;28.70;17.88;;;10.40;99.90;;;;;;5098032;28;20673;-74
2022/11/04 02:43:35;;;;;;;22.63;15.93;;;10.40;99.90;;;;;;5117490;28;20176;-74
2022/11/04 02:46:06;;;;;;;30.83;17.15;;;10.30;99.90;;;;;;5117388;28;20217;-70
2022/11/04 02:48:54;;;;;;;37.08;18.02;;;10.30;99.90;;;;;;5116293;28;20710;-72
2022/11/04 02:51:28;;;;;;;29.55;17.38;;;10.20;99.90;;;;;;5099087;28;20249;-72
2022/11/04 02:54:06;;;;;;;28.65;17.70;;;10.20;99.90;;;;;;5116150;28;20179;-77
2022/11/04 02:56:36;;;;;;;30.92;19.90;;;10.20;99.90;;;;;;5098815;28;20183;-72
2022/11/04 02:59:10;;;;;;;35.70;19.50;;;10.10;99.90;;;;;;5117646;28;20176;-76
2022/11/04 03:01:40;;;;;;;31.95;19.13;;;10.10;99.90;;;;;;5117282;28;20168;-72
2022/11/04 03:04:12;;;;;;;33.05;18.55;;;10.10;99.90;;;;;;5116990;28;20225;-72
2022/11/04 03:06:40;;;;;;;31.10;19.98;;;10.10;99.90;;;;;;5116950;28;20199;-72
2022/11/04 03:09:08;;;;;;;28.00;18.63;;;10.10;99.90;;;;;;5098796;28;20206;-72
2022/11/04 03:11:37;;;;;;;28.33;19.00;;;10.10;99.90;;;;;;5116996;28;20577;-72
2022/11/04 03:14:06;;;;;;;33.22;17.80;;;10.00;99.90;;;;;;5117118;28;20179;-72
2022/11/04 03:16:41;;;;;;;31.05;18.42;;;10.00;99.90;;;;;;5098442;28;20207;-72
2022/11/04 03:19:25;;;;;;;27.00;17.30;;;10.00;99.90;;;;;;5116563;28;20205;-72
2022/11/04 03:22:03;;;;;;;31.25;19.13;;;10.00;99.90;;;;;;5116771;28;20184;-72
2022/11/04 03:24:30;;;;;;;62.97;31.90;;;9.90;99.90;;;;;;5094904;28;20236;-72
2022/11/04 03:27:09;;;;;;;115.82;52.63;;;9.90;99.90;;;;;;5111891;28;20684;-73
2022/11/04 03:29:47;;;;;;;43.50;25.38;;;9.90;99.90;;;;;;5096623;28;20246;-77
2022/11/04 03:32:31;;;;;;;38.33;22.52;;;9.90;99.90;;;;;;5096201;28;20240;-72
2022/11/04 03:34:57;;;;;;;32.58;20.27;;;9.90;99.90;;;;;;5096608;28;20200;-75
2022/11/04 03:37:23;;;;;;;42.60;23.33;;;9.80;99.90;;;;;;5095997;28;20169;-74
2022/11/04 03:39:49;;;;;;;196.07;73.93;;;9.80;99.90;;;;;;5111891;28;20200;-77
2022/11/04 03:42:18;;;;;;;176.50;71.53;;;9.80;99.90;;;;;;5095919;28;20169;-76
2022/11/04 03:44:55;;;;;;;141.27;54.83;;;9.80;99.90;;;;;;5111531;28;20207;-72
2022/11/04 03:47:24;;;;;;;210.82;80.90;;;9.80;99.90;;;;;;5111618;28;20192;-72
2022/11/04 03:49:54;;;;;;;173.70;68.03;;;9.80;99.90;;;;;;5095693;28;20568;-72
2022/11/04 03:52:20;;;;;;;80.88;36.80;;;9.70;99.90;;;;;;5095164;28;20691;-77
2022/11/04 03:54:47;;;;;;;39.80;22.30;;;9.70;99.90;;;;;;5096142;28;20196;-77
2022/11/04 03:57:30;;;;;;;33.40;20.42;;;9.70;99.90;;;;;;5095655;28;20233;-72
2022/11/04 04:00:20;;;;;;;27.92;17.20;;;9.70;99.90;;;;;;5096090;28;20201;-77
2022/11/04 04:03:07;;;;;;;37.47;19.48;;;9.60;99.90;;;;;;5111352;28;20221;-73
2022/11/04 04:05:55;;;;;;;32.83;19.23;;;9.60;99.90;;;;;;5111194;28;20556;-73
2022/11/04 04:08:40;;;;;;;45.17;24.27;;;9.60;99.90;;;;;;5111210;28;20196;-72
2022/11/04 04:11:25;;;;;;;44.88;22.60;;;9.60;99.90;;;;;;5111159;28;20223;-77
2022/11/04 04:13:54;;;;;;;36.15;20.00;;;9.60;99.90;;;;;;5095666;28;20182;-77
2022/11/04 04:16:44;;;;;;;25.27;17.30;;;9.50;99.90;;;;;;5095206;28;20192;-72
2022/11/04 04:19:23;;;;;;;29.88;17.65;;;9.40;99.90;;;;;;5084610;28;20192;-77
2022/11/04 04:21:58;;;;;;;33.10;20.17;;;9.40;99.90;;;;;;5110950;28;20699;-73
2022/11/04 04:27:32;;;;;;;31.00;18.95;;;9.40;99.90;;;;;;5115329;28;20721;-72
2022/11/04 04:30:01;;;;;;;25.92;16.70;;;9.30;99.90;;;;;;5097354;28;20601;-72
2022/11/04 04:32:29;;;;;;;25.40;16.30;;;9.40;99.90;;;;;;5097003;28;20248;-73
2022/11/04 04:35:40;;;;;;;26.83;18.30;;;9.40;99.90;;;;;;5115753;28;20287;-72
2022/11/04 04:37:42;;;;;;;29.25;17.73;;;9.40;99.90;;;;;;5115119;28;20201;-72
2022/11/04 04:45:42;;;;;;;30.17;17.23;;;9.40;99.90;;;;;;5115212;28;20249;-76
2022/11/04 04:48:10;;;;;;;30.25;19.90;;;9.50;99.90;;;;;;5096718;28;20252;-77
2022/11/04 04:50:41;;;;;;;35.67;18.67;;;9.50;99.90;;;;;;5114911;28;20188;-72
2022/11/04 04:53:07;;;;;;;32.20;18.65;;;9.50;99.90;;;;;;5115064;28;20167;-75
2022/11/04 04:55:32;;;;;;;30.20;18.70;;;9.50;99.90;;;;;;5096608;28;20256;-74
2022/11/04 04:57:58;;;;;;;28.27;18.40;;;9.40;99.90;;;;;;5114924;28;20502;-73
2022/11/04 05:00:25;;;;;;;29.33;18.58;;;9.40;99.90;;;;;;5114672;28;20195;-76
2022/11/04 05:02:50;;;;;;;33.00;18.27;;;9.40;99.90;;;;;;5114016;28;20251;-73
2022/11/04 05:05:17;;;;;;;32.77;18.77;;;9.50;99.90;;;;;;5114516;28;20226;-73
2022/11/04 05:07:43;;;;;;;30.13;19.60;;;9.50;99.90;;;;;;5096396;28;20632;-73
2022/11/04 05:10:11;;;;;;;35.27;19.70;;;9.50;99.90;;;;;;5114611;28;20198;-76
2022/11/04 05:15:22;;;;;;;31.23;18.13;;;9.50;99.90;;;;;;5114517;28;20198;-75
2022/11/04 05:17:56;;;;;;;30.20;17.90;;;9.50;99.90;;;;;;5113230;28;20633;-73
2022/11/04 05:20:22;;;;;;;36.17;18.58;;;9.50;99.90;;;;;;5113092;28;20438;-72
2022/11/04 05:22:47;;;;;;;32.70;19.80;;;9.50;99.90;;;;;;5114043;28;20678;-72
2022/11/04 05:25:13;;;;;;;30.20;18.97;;;9.50;99.90;;;;;;5095111;28;20322;-75
2022/11/04 05:27:38;;;;;;;30.33;19.20;;;9.50;99.90;;;;;;5112852;28;20238;-73
2022/11/04 05:30:05;;;;;;;29.33;18.37;;;9.50;99.90;;;;;;5112280;28;20207;-73
2022/11/04 05:32:31;;;;;;;29.88;19.75;;;9.50;99.90;;;;;;5095610;28;20217;-73
2022/11/04 05:34:56;;;;;;;29.17;19.23;;;9.50;99.90;;;;;;5114001;28;20212;-73
2022/11/04 05:37:22;;;;;;;33.53;19.13;;;9.50;99.90;;;;;;5112534;28;20211;-73
2022/11/04 05:39:48;;;;;;;29.23;17.93;;;9.50;99.90;;;;;;5112924;28;20940;-73
2022/11/04 05:42:13;;;;;;;31.20;18.80;;;9.50;99.90;;;;;;5094182;28;20178;-76
2022/11/04 05:44:39;;;;;;;34.90;19.30;;;9.50;99.90;;;;;;5110829;28;20241;-75
2022/11/04 05:47:05;;;;;;;33.60;20.53;;;9.60;99.90;;;;;;5082257;28;20661;-72
2022/11/04 05:49:30;;;;;;;38.13;21.50;;;9.60;99.90;;;;;;5073555;28;20215;-76
2022/11/04 05:51:56;;;;;;;31.83;20.20;;;9.60;99.90;;;;;;5092182;28;20183;-76
2022/11/04 05:54:22;;;;;;;39.40;20.60;;;9.60;99.90;;;;;;5095509;28;20208;-73
2022/11/04 05:56:47;;;;;;;33.17;20.50;;;9.50;99.90;;;;;;5112566;28;20457;-73
2022/11/04 05:59:13;;;;;;;29.97;19.47;;;9.50;99.90;;;;;;5113576;28;20259;-73
2022/11/04 06:01:41;;;;;;;31.00;20.80;;;9.50;99.90;;;;;;5095655;28;20206;-73
2022/11/04 06:04:13;;;;;;;35.58;21.02;;;9.50;99.90;;;;;;5095473;28;20233;-76
2022/11/04 06:06:39;;;;;;;32.58;20.30;;;9.50;99.90;;;;;;5111136;28;20195;-72
2022/11/04 06:09:05;;;;;;;35.17;19.77;;;9.40;99.90;;;;;;5094346;28;20555;-72
2022/11/04 06:11:32;;;;;;;31.55;19.88;;;9.40;99.90;;;;;;5113692;28;20416;-72
2022/11/04 06:13:58;;;;;;;37.25;21.17;;;9.40;99.90;;;;;;5096625;28;20215;-72
2022/11/04 06:16:24;;;;;;;32.97;20.60;;;9.40;99.90;;;;;;5098975;28;20237;-75
2022/11/04 06:18:50;;;;;;;37.70;22.83;;;9.40;99.90;;;;;;5117642;28;20830;-75
2022/11/04 06:21:17;;;;;;;38.30;21.83;;;9.40;99.90;;;;;;5098710;28;20199;-75
2022/11/04 06:23:44;;;;;;;37.45;22.17;;;9.50;99.90;;;;;;5099169;28;20236;-75
2022/11/04 06:26:11;;;;;;;38.20;22.52;;;9.50;99.90;;;;;;5099047;28;20288;-75
2022/11/04 06:28:37;;;;;;;37.67;23.70;;;9.50;99.90;;;;;;5117209;28;20194;-72
2022/11/04 06:31:05;;;;;;;38.95;24.20;;;9.50;99.90;;;;;;5098376;28;20211;-72
2022/11/04 06:33:31;;;;;;;34.65;22.20;;;9.50;99.90;;;;;;5099152;28;20176;-72
2022/11/04 06:36:02;;;;;;;43.90;24.77;;;9.60;99.90;;;;;;5098751;28;20203;-75
2022/11/04 06:38:33;;;;;;;43.95;23.02;;;9.60;99.90;;;;;;5115462;28;20650;-73
2022/11/04 06:40:59;;;;;;;34.97;22.25;;;9.60;99.90;;;;;;5116750;28;20223;-75
2022/11/04 06:43:24;;;;;;;36.20;22.20;;;9.60;99.90;;;;;;5098396;28;20212;-73
2022/11/04 06:45:54;;;;;;;37.37;21.83;;;9.70;99.90;;;;;;5097003;28;20747;-72
2022/11/04 06:48:20;;;;;;;40.40;25.08;;;9.70;99.90;;;;;;5095574;28;20186;-72
2022/11/04 06:50:45;;;;;;;38.90;23.67;;;9.70;99.90;;;;;;5113896;28;20664;-75
2022/11/04 06:53:11;;;;;;;47.00;23.77;;;9.80;99.90;;;;;;5114027;28;20179;-75
2022/11/04 06:55:37;;;;;;;45.33;25.67;;;9.80;99.90;;;;;;5113236;28;20208;-75
2022/11/04 06:58:02;;;;;;;38.93;23.80;;;9.90;99.90;;;;;;5114890;28;20667;-72
2022/11/04 07:00:28;;;;;;;36.63;22.93;;;9.90;99.90;;;;;;5115221;28;20261;-75
2022/11/04 07:02:53;;;;;;;41.87;23.80;;;9.90;99.90;;;;;;5107543;28;20176;-75
2022/11/04 07:05:19;;;;;;;44.27;25.20;;;10.00;99.90;;;;;;5096383;28;20192;-75
2022/11/04 07:07:45;;;;;;;41.37;23.73;;;10.10;99.90;;;;;;5095675;28;20193;-75
2022/11/04 07:10:10;;;;;;;44.77;27.00;;;10.20;99.90;;;;;;5094634;28;20699;-75
2022/11/04 07:12:36;;;;;;;42.00;26.13;;;10.30;99.90;;;;;;5110388;28;20228;-72
2022/11/04 07:15:02;;;;;;;45.00;26.77;;;10.50;99.90;;;;;;5112104;28;20195;-75
2022/11/04 07:17:28;;;;;;;34.60;23.85;;;10.60;99.90;;;;;;5093620;28;20168;-72
2022/11/04 07:19:53;;;;;;;43.07;24.20;;;10.80;99.90;;;;;;5111711;28;20703;-76
2022/11/04 07:22:19;;;;;;;42.13;25.17;;;10.90;99.90;;;;;;5093473;28;20168;-74
2022/11/04 07:24:45;;;;;;;45.63;26.03;;;11.10;99.90;;;;;;5112139;28;20238;-73
2022/11/04 07:27:10;;;;;;;42.80;24.67;;;11.40;99.90;;;;;;5113027;28;20200;-73
2022/11/04 07:29:36;;;;;;;34.87;23.43;;;11.70;99.90;;;;;;5094255;28;20208;-73
2022/11/04 07:32:02;;;;;;;46.03;24.47;;;12.10;99.90;;;;;;5092672;28;20267;-75
2022/11/04 07:34:27;;;;;;;39.03;24.90;;;12.50;99.90;;;;;;5092888;28;20708;-73
2022/11/04 07:36:53;;;;;;;37.13;23.03;;;12.70;99.90;;;;;;5110725;28;20495;-71
2022/11/04 07:39:19;;;;;;;38.03;22.57;;;13.00;99.90;;;;;;5110181;28;20176;-71
2022/11/04 07:41:44;;;;;;;35.70;23.60;;;13.20;99.90;;;;;;5093808;28;20172;-71
2022/11/04 07:44:11;;;;;;;39.07;25.30;;;13.30;99.90;;;;;;5102229;28;20552;-74
2022/11/04 07:46:37;;;;;;;41.33;26.40;;;13.20;99.90;;;;;;5092878;28;20214;-74
2022/11/04 07:49:03;;;;;;;43.13;24.23;;;13.10;99.90;;;;;;5111817;28;20431;-74
2022/11/04 07:51:31;;;;;;;45.67;25.30;;;13.00;99.90;;;;;;5092885;28;20183;-74
2022/11/04 07:53:57;;;;;;;39.63;24.23;;;12.90;99.90;;;;;;5085935;28;20446;-74
2022/11/04 07:56:23;;;;;;;42.27;25.83;;;12.80;99.90;;;;;;5105760;28;20477;-73
2022/11/04 07:58:49;;;;;;;43.10;26.50;;;12.70;99.90;;;;;;5104163;28;20481;-71
2022/11/04 08:01:17;;;;;;;43.23;25.87;;;12.80;99.90;;;;;;5091814;28;20439;-71
2022/11/04 08:03:43;;;;;;;46.83;26.57;;;12.80;99.90;;;;;;5110909;28;20416;-71
2022/11/04 08:06:12;;;;;;;51.13;27.73;;;12.80;99.90;;;;;;5085167;28;20467;-74
2022/11/04 08:08:37;;;;;;;44.03;26.63;;;12.80;99.90;;;;;;5108617;28;20417;-71
2022/11/04 08:11:06;;;;;;;42.47;25.93;;;12.80;99.90;;;;;;5088671;28;20439;-74
2022/11/04 08:13:34;;;;;;;43.90;27.07;;;12.80;99.90;;;;;;5106598;28;20180;-71
2022/11/04 08:16:02;;;;;;;45.03;26.80;;;12.70;99.90;;;;;;5090458;28;20704;-71
2022/11/04 08:18:29;;;;;;;54.27;29.90;;;12.70;99.90;;;;;;5109837;28;21157;-74
2022/11/04 08:20:54;;;;;;;56.93;31.13;;;12.70;99.90;;;;;;5111837;28;20940;-71
2022/11/04 08:23:20;;;;;;;54.53;29.17;;;12.70;99.90;;;;;;5112135;28;20428;-74
2022/11/04 08:25:46;;;;;;;50.67;30.60;;;12.60;99.90;;;;;;5095031;28;20672;-74
2022/11/04 08:28:16;;;;;;;46.90;28.60;;;12.60;99.90;;;;;;5095239;28;20188;-74
2022/11/04 08:30:52;;;;;;;58.00;33.17;;;12.60;99.90;;;;;;5111592;27;20432;-74
2022/11/04 08:33:18;;;;;;;42.77;28.83;;;12.60;99.90;;;;;;5110640;28;20443;-72
2022/11/04 08:35:44;;;;;;;48.07;29.30;;;12.60;99.90;;;;;;5105285;28;20444;-72
2022/11/04 08:38:09;;;;;;;53.77;31.60;;;12.70;99.90;;;;;;5106545;28;20196;-71
2022/11/04 08:40:36;;;;;;;54.93;30.07;;;12.80;99.90;;;;;;5092405;28;20282;-75
2022/11/04 08:43:01;;;;;;;50.80;30.07;;;12.90;99.90;;;;;;5091305;28;20184;-71
2022/11/04 08:45:27;;;;;;;50.00;29.57;;;13.00;99.90;;;;;;5089564;28;20457;-72
2022/11/04 08:47:53;;;;;;;44.30;30.80;;;13.20;99.90;;;;;;5101288;28;20417;-71
2022/11/04 08:50:20;;;;;;;53.70;31.43;;;13.40;99.90;;;;;;5084323;28;20214;-71
2022/11/04 08:52:46;;;;;;;53.43;29.40;;;13.50;99.90;;;;;;5080960;27;20432;-71
2022/11/04 08:55:11;;;;;;;52.80;30.00;;;13.80;99.90;;;;;;5089115;28;21027;-72
2022/11/04 08:57:37;;;;;;;47.73;30.13;;;14.00;99.90;;;;;;5109026;28;20184;-74
2022/11/04 09:00:04;;;;;;;45.40;29.17;;;14.10;99.90;;;;;;5089030;28;20590;-74
2022/11/04 09:02:29;;;;;;;51.20;28.00;;;14.30;99.90;;;;;;5103952;27;20168;-71
2022/11/04 09:04:55;;;;;;;44.83;28.40;;;14.40;99.90;;;;;;5087850;28;20790;-72
2022/11/04 09:07:20;;;;;;;43.10;29.60;;;14.50;99.90;;;;;;5089867;28;20217;-71
2022/11/04 09:09:46;;;;;;;50.43;28.30;;;14.50;99.90;;;;;;5108769;28;20575;-75
2022/11/04 09:12:12;;;;;;;41.70;26.63;;;14.60;99.90;;;;;;5115803;27;20213;-73
2022/11/04 09:14:37;;;;;;;37.83;27.00;;;14.80;99.90;;;;;;5093279;27;20203;-75
2022/11/04 09:17:03;;;;;;;48.70;28.90;;;15.00;99.90;;;;;;5095071;28;20218;-74
2022/11/04 09:19:28;;;;;;;48.50;27.97;;;15.20;99.90;;;;;;5110797;28;20196;-72
2022/11/04 09:21:54;;;;;;;41.90;26.60;;;15.30;99.90;;;;;;5087148;28;20220;-74
2022/11/04 09:24:20;;;;;;;42.03;28.27;;;15.50;99.90;;;;;;5090984;28;20458;-76
2022/11/04 09:26:45;;;;;;;37.73;26.13;;;15.60;99.90;;;;;;5106692;28;20199;-75
2022/11/04 09:29:11;;;;;;;40.77;26.97;;;15.70;99.90;;;;;;5106944;28;20581;-76
2022/11/04 09:31:37;;;;;;;40.17;25.60;;;15.80;99.90;;;;;;5086983;28;20455;-76
2022/11/04 09:34:03;;;;;;;40.70;26.53;;;15.90;99.90;;;;;;5104557;28;20175;-72
2022/11/04 09:36:29;;;;;;;37.67;25.77;;;15.90;99.90;;;;;;5095156;28;20428;-74
2022/11/04 09:38:55;;;;;;;38.83;26.40;;;16.00;99.90;;;;;;5106896;28;20279;-72
2022/11/04 09:41:48;;;;;;;42.77;26.37;;;16.10;99.90;;;;;;5104325;28;20676;-75
2022/11/04 09:44:29;;;;;;;35.80;26.17;;;16.10;99.90;;;;;;5084157;28;20443;-72
2022/11/04 09:46:59;;;;;;;37.30;26.70;;;16.30;99.90;;;;;;5084968;28;20543;-72
2022/11/04 09:49:28;;;;;;;37.70;26.17;;;16.40;99.90;;;;;;5096827;28;20441;-71
2022/11/04 09:51:56;;;;;;;39.20;25.00;;;16.40;99.90;;;;;;5088231;28;20489;-75
2022/11/04 09:54:49;;;;;;;37.40;25.47;;;16.50;99.90;;;;;;5097737;28;20449;-75
2022/11/04 09:57:17;;;;;;;38.20;24.97;;;16.60;99.90;;;;;;5091301;28;20532;-72
2022/11/04 09:59:43;;;;;;;39.00;26.03;;;16.60;99.90;;;;;;5102130;28;20698;-72
2022/11/04 10:02:27;;;;;;;35.80;24.37;;;16.60;99.90;;;;;;5077492;28;20840;-75
2022/11/04 10:05:01;;;;;;;39.53;25.13;;;16.60;99.90;;;;;;5083223;28;20462;-72
2022/11/04 10:07:44;;;;;;;39.10;26.23;;;16.70;99.90;;;;;;5100958;28;20500;-76
2022/11/04 10:10:34;;;;;;;37.87;25.40;;;16.70;99.90;;;;;;5084454;28;20488;-75
2022/11/04 10:13:17;;;;;;;35.10;24.87;;;16.80;99.90;;;;;;5102432;28;20451;-75
2022/11/04 10:16:20;;;;;;;44.53;25.60;;;16.90;99.90;;;;;;5082703;28;20821;-75
2022/11/04 10:19:27;;;;;;;40.60;26.23;;;17.00;99.90;;;;;;5072166;28;20425;-72
2022/11/04 10:22:21;;;;;;;38.07;24.47;;;16.90;99.90;;;;;;5044195;28;20450;-75
2022/11/04 10:25:15;;;;;;;36.87;23.60;;;17.00;99.90;;;;;;5103095;28;20516;-76
2022/11/04 10:27:44;;;;;;;36.33;24.93;;;17.00;99.90;;;;;;5105711;28;20656;-73
2022/11/04 10:30:21;;;;;;;36.70;24.60;;;17.00;99.90;;;;;;5081968;28;20587;-73
2022/11/04 10:32:51;;;;;;;34.80;22.67;;;17.10;99.90;;;;;;5089574;28;20993;-76
2022/11/04 10:35:21;;;;;;;32.63;22.47;;;17.20;99.90;;;;;;5105143;28;20451;-76
2022/11/04 10:37:52;;;;;;;34.87;21.87;;;17.40;99.90;;;;;;5084796;28;20434;-73
2022/11/04 10:40:27;;;;;;;33.27;23.50;;;17.50;99.90;;;;;;5108636;28;20445;-75
2022/11/04 10:42:56;;;;;;;29.37;21.60;;;17.60;99.90;;;;;;5099937;28;20425;-76
2022/11/04 10:45:29;;;;;;;35.37;22.70;;;17.80;99.90;;;;;;5102740;28;20434;-75
2022/11/04 10:48:11;;;;;;;24.13;18.33;;;17.80;99.90;;;;;;5086956;28;20658;-76
2022/11/04 10:50:53;;;;;;;25.80;19.50;;;17.80;99.90;;;;;;5090323;28;20446;-73
2022/11/04 10:53:22;;;;;;;28.90;19.43;;;17.80;99.90;;;;;;5101434;28;20479;-72
2022/11/04 10:55:53;;;;;;;36.10;19.33;;;17.90;99.90;;;;;;5103424;28;20576;-72
2022/11/04 10:58:26;;;;;;;28.83;18.03;;;18.00;99.90;;;;;;5108364;28;20461;-73
2022/11/04 11:00:53;;;;;;;27.00;19.10;;;18.10;99.90;;;;;;5086313;28;20434;-75
2022/11/04 11:03:26;;;;;;;22.37;14.70;;;18.10;99.90;;;;;;5114592;28;20517;-75
2022/11/04 11:05:52;;;;;;;33.07;17.23;;;18.10;99.90;;;;;;5109628;28;20478;-75
2022/11/04 11:08:32;;;;;;;26.30;18.90;;;18.10;99.90;;;;;;5103922;28;20760;-72
2022/11/04 11:10:58;;;;;;;30.37;17.97;;;18.10;99.90;;;;;;5113330;28;21029;-75
2022/11/04 11:13:33;;;;;;;32.23;22.60;;;18.20;99.90;;;;;;5113151;28;20483;-72
2022/11/04 11:16:06;;;;;;;25.13;18.20;;;18.20;99.90;;;;;;5112784;28;20302;-76
2022/11/04 11:18:32;;;;;;;26.13;18.53;;;18.20;99.90;;;;;;5093183;28;20446;-75
2022/11/04 11:21:08;;;;;;;27.10;18.00;;;18.20;99.90;;;;;;5104066;28;20472;-72
2022/11/04 11:24:11;;;;;;;27.93;20.10;;;18.30;99.90;;;;;;5088228;28;20564;-75
2022/11/04 11:26:37;;;;;;;26.30;17.33;;;18.40;99.90;;;;;;5092046;28;20496;-76
2022/11/04 11:29:10;;;;;;;27.87;17.37;;;18.50;99.90;;;;;;5104089;28;20435;-76
2022/11/04 11:31:38;;;;;;;22.00;16.67;;;18.50;99.90;;;;;;5100685;28;20263;-76
2022/11/04 11:34:13;;;;;;;27.60;18.20;;;18.60;99.90;;;;;;5088007;28;20443;-76
2022/11/04 11:36:39;;;;;;;27.87;18.60;;;18.60;99.90;;;;;;5084219;28;20515;-72
2022/11/04 11:39:16;;;;;;;28.00;17.97;;;18.60;99.90;;;;;;5102400;28;20439;-76
2022/11/04 11:41:55;;;;;;;26.93;17.37;;;18.60;99.90;;;;;;5099492;28;20447;-72
2022/11/04 11:44:46;;;;;;;24.13;16.67;;;18.60;99.90;;;;;;5100164;28;20431;-76
2022/11/04 11:47:21;;;;;;;29.87;17.07;;;18.60;99.90;;;;;;5084435;28;20838;-76
2022/11/04 11:50:03;;;;;;;23.43;16.33;;;18.60;99.90;;;;;;5092982;28;20573;-75
2022/11/04 11:52:31;;;;;;;21.80;14.40;;;18.60;99.90;;;;;;5088620;28;20484;-72
2022/11/04 11:55:13;;;;;;;19.83;16.13;;;18.60;99.90;;;;;;5106283;28;20503;-75
2022/11/04 11:57:57;;;;;;;23.23;17.13;;;18.60;99.90;;;;;;5090475;28;20438;-75
2022/11/04 12:00:31;;;;;;;24.10;15.77;;;18.60;99.90;;;;;;5094462;28;20520;-72
2022/11/04 12:03:29;;;;;;;22.40;15.00;;;18.60;99.90;;;;;;5091082;28;20473;-73
2022/11/04 12:06:04;;;;;;;24.80;17.07;;;18.60;99.90;;;;;;5108119;28;20481;-76
2022/11/04 12:08:35;;;;;;;21.70;15.10;;;18.60;99.90;;;;;;5113893;28;20862;-73
2022/11/04 12:11:09;;;;;;;21.80;15.93;;;18.60;99.90;;;;;;5083297;28;20534;-73
2022/11/04 12:13:51;;;;;;;24.17;16.10;;;18.60;99.90;;;;;;5088190;28;20504;-76
2022/11/04 12:16:43;;;;;;;23.83;16.93;;;18.60;99.90;;;;;;5107468;28;20444;-72
2022/11/04 12:19:30;;;;;;;26.80;16.47;;;18.60;99.90;;;;;;5090626;28;20541;-75
2022/11/04 12:22:11;;;;;;;24.43;16.60;;;18.60;99.90;;;;;;5089561;28;21079;-76
2022/11/04 12:24:42;;;;;;;23.00;16.33;;;18.60;99.90;;;;;;5100724;28;20517;-75
2022/11/04 12:27:15;;;;;;;18.80;14.30;;;18.60;99.90;;;;;;5104801;28;20470;-73
2022/11/04 12:30:02;;;;;;;27.47;16.90;;;18.60;99.90;;;;;;5088058;28;20466;-75
2022/11/04 12:33:01;;;;;;;23.73;16.07;;;18.60;99.90;;;;;;5085949;28;20521;-72
2022/11/04 12:35:43;;;;;;;24.23;16.33;;;18.60;99.90;;;;;;5093450;28;20466;-72
2022/11/04 12:38:22;;;;;;;21.37;15.07;;;18.60;99.90;;;;;;5087419;28;21046;-76
2022/11/04 12:41:01;;;;;;;23.53;16.43;;;18.60;99.90;;;;;;5085173;28;20485;-76
2022/11/04 12:43:51;;;;;;;22.13;15.47;;;18.60;99.90;;;;;;5104062;28;20439;-76
2022/11/04 12:46:41;;;;;;;23.83;15.53;;;18.50;99.90;;;;;;5104152;28;20477;-76
2022/11/04 12:49:17;;;;;;;27.73;16.10;;;18.50;99.90;;;;;;5087147;28;20978;-77
2022/11/04 12:51:59;;;;;;;22.10;15.77;;;18.60;99.90;;;;;;5104946;28;20432;-76
2022/11/04 12:54:58;;;;;;;22.30;15.83;;;18.60;99.90;;;;;;5094882;28;20450;-76
2022/11/04 12:57:52;;;;;;;23.83;14.30;;;18.60;99.90;;;;;;5083157;28;21013;-72
2022/11/04 13:00:23;;;;;;;19.87;13.83;;;18.60;99.90;;;;;;5099251;28;20493;-72
2022/11/04 13:03:17;;;;;;;20.97;14.00;;;18.50;99.90;;;;;;5094984;28;20426;-73
2022/11/04 13:05:56;;;;;;;20.80;15.90;;;18.50;99.90;;;;;;5083828;28;20472;-75
2022/11/04 13:08:41;;;;;;;23.10;16.63;;;18.50;99.90;;;;;;5099910;28;20782;-73
2022/11/04 13:11:24;;;;;;;22.47;14.83;;;18.50;99.90;;;;;;5104304;28;20507;-76
2022/11/04 13:14:28;;;;;;;23.57;15.40;;;18.50;99.90;;;;;;5090291;28;20521;-73
2022/11/04 13:16:59;;;;;;;26.37;16.03;;;18.50;99.90;;;;;;5070901;28;21114;-76
2022/11/04 13:19:51;;;;;;;22.27;15.87;;;18.50;99.90;;;;;;5104984;28;20461;-76
2022/11/04 13:22:21;;;;;;;20.90;15.20;;;18.50;99.90;;;;;;5082326;28;20531;-73
2022/11/04 13:25:02;;;;;;;27.13;15.37;;;18.50;99.90;;;;;;5083205;28;20470;-73
2022/11/04 13:27:35;;;;;;;20.07;15.70;;;18.50;99.90;;;;;;5090242;28;20874;-73